TimeEST,TemperatureF,Dew PointF,Humidity,Sea Level PressureIn,VisibilityMPH,Wind Direction,Wind SpeedMPH,Gust SpeedMPH,PrecipitationIn,Events,Conditions,WindDirDegrees,DateUTC
12:15 AM,62.6,57.2,82,29.78,10.0,South,9.2,-,N/A,,Clear,190,2012-12-11 05:15:00
12:35 AM,62.6,57.2,82,29.78,10.0,South,10.4,-,N/A,,Clear,190,2012-12-11 05:35:00
12:55 AM,62.6,59.0,88,29.77,10.0,South,11.5,-,N/A,,Clear,180,2012-12-11 05:55:00
1:15 AM,64.4,60.8,88,29.78,10.0,South,9.2,-,N/A,,Clear,190,2012-12-11 06:15:00
1:35 AM,64.4,60.8,88,29.79,10.0,South,8.1,-,N/A,,Clear,190,2012-12-11 06:35:00
1:55 AM,64.4,60.8,88,29.80,10.0,SSW,6.9,-,N/A,,Partly Cloudy,200,2012-12-11 06:55:00
2:15 AM,64.4,60.8,88,29.80,10.0,SSW,6.9,-,N/A,,Scattered Clouds,200,2012-12-11 07:15:00
2:35 AM,64.4,62.6,94,29.79,10.0,SSW,6.9,-,N/A,,Partly Cloudy,200,2012-12-11 07:35:00
2:55 AM,64.4,62.6,94,29.80,10.0,SSW,8.1,-,N/A,,Partly Cloudy,210,2012-12-11 07:55:00
3:15 AM,66.2,64.4,94,29.80,10.0,SW,8.1,-,N/A,,Partly Cloudy,220,2012-12-11 08:15:00
3:35 AM,66.2,64.4,94,29.79,10.0,SSW,8.1,-,N/A,,Clear,210,2012-12-11 08:35:00
3:55 AM,66.2,64.4,94,29.79,10.0,SSW,8.1,-,N/A,,Partly Cloudy,210,2012-12-11 08:55:00
4:15 AM,66.2,64.4,94,29.79,10.0,SSW,8.1,-,N/A,,Clear,210,2012-12-11 09:15:00
4:35 AM,66.2,64.4,94,29.79,9.0,SW,5.8,-,N/A,,Clear,220,2012-12-11 09:35:00
4:55 AM,66.2,64.4,94,29.80,7.0,SW,5.8,-,N/A,,Clear,220,2012-12-11 09:55:00
5:15 AM,64.4,62.6,94,29.80,5.0,SSW,6.9,-,N/A,,Clear,200,2012-12-11 10:15:00
5:35 AM,64.4,62.6,94,29.81,5.0,SW,5.8,-,N/A,,Clear,220,2012-12-11 10:35:00
5:55 AM,64.4,62.6,94,29.81,5.0,SW,4.6,-,N/A,,Clear,220,2012-12-11 10:55:00
6:15 AM,64.4,62.6,94,29.82,5.0,SW,4.6,-,N/A,,Clear,220,2012-12-11 11:15:00
6:35 AM,64.4,62.6,94,29.83,4.0,SW,4.6,-,N/A,,Clear,220,2012-12-11 11:35:00
6:55 AM,64.4,62.6,94,29.84,5.0,SW,5.8,-,N/A,,Partly Cloudy,220,2012-12-11 11:55:00
7:15 AM,64.4,62.6,94,29.85,5.0,SW,5.8,-,N/A,,Clear,220,2012-12-11 12:15:00
7:35 AM,62.6,62.6,100,29.86,4.0,SSW,4.6,-,N/A,,Clear,210,2012-12-11 12:35:00
7:55 AM,64.4,64.4,100,29.88,5.0,SW,5.8,-,N/A,,Clear,220,2012-12-11 12:55:00
8:15 AM,64.4,64.4,100,29.88,7.0,SW,6.9,-,N/A,,Scattered Clouds,230,2012-12-11 13:15:00
8:35 AM,64.4,62.6,94,29.89,9.0,SW,8.1,-,N/A,,Mostly Cloudy,230,2012-12-11 13:35:00
8:55 AM,66.2,62.6,88,29.91,10.0,WSW,9.2,-,N/A,,Mostly Cloudy,240,2012-12-11 13:55:00
9:15 AM,66.2,62.6,88,29.92,10.0,WSW,10.4,16.1,N/A,,Overcast,250,2012-12-11 14:15:00
9:35 AM,64.4,60.8,88,29.93,10.0,West,6.9,16.1,N/A,,Overcast,260,2012-12-11 14:35:00
9:55 AM,64.4,60.8,88,29.93,10.0,West,8.1,-,N/A,,Overcast,260,2012-12-11 14:55:00
10:15 AM,66.2,60.8,83,29.94,10.0,WSW,6.9,-,N/A,,Overcast,240,2012-12-11 15:15:00
10:35 AM,66.2,60.8,83,29.94,10.0,WSW,4.6,-,N/A,,Mostly Cloudy,250,2012-12-11 15:35:00
10:55 AM,66.2,59.0,78,29.94,10.0,West,4.6,-,N/A,,Partly Cloudy,260,2012-12-11 15:55:00
11:15 AM,68.0,59.0,73,29.94,10.0,WSW,9.2,-,N/A,,Partly Cloudy,240,2012-12-11 16:15:00
11:35 AM,68.0,57.2,68,29.94,10.0,WSW,9.2,-,N/A,,Mostly Cloudy,250,2012-12-11 16:35:00
11:55 AM,69.8,57.2,64,29.94,10.0,West,6.9,-,N/A,,Scattered Clouds,270,2012-12-11 16:55:00
12:15 PM,69.8,57.2,64,29.94,10.0,WSW,8.1,-,N/A,,Scattered Clouds,240,2012-12-11 17:15:00
12:35 PM,69.8,57.2,64,29.93,10.0,WSW,8.1,-,N/A,,Scattered Clouds,240,2012-12-11 17:35:00
12:55 PM,69.8,55.4,60,29.93,10.0,WSW,5.8,-,N/A,,Partly Cloudy,240,2012-12-11 17:55:00
1:15 PM,69.8,55.4,60,29.93,10.0,WSW,8.1,-,N/A,,Scattered Clouds,240,2012-12-11 18:15:00
1:35 PM,69.8,55.4,60,29.92,10.0,West,6.9,-,N/A,,Mostly Cloudy,280,2012-12-11 18:35:00
1:55 PM,68.0,53.6,60,29.93,10.0,WSW,3.5,-,N/A,,Mostly Cloudy,240,2012-12-11 18:55:00
2:15 PM,66.2,55.4,68,29.94,10.0,WSW,4.6,-,N/A,,Overcast,240,2012-12-11 19:15:00
2:35 PM,66.2,55.4,68,29.94,10.0,SW,5.8,-,N/A,,Mostly Cloudy,230,2012-12-11 19:35:00
2:55 PM,66.2,55.4,68,29.95,10.0,South,4.6,-,N/A,,Mostly Cloudy,190,2012-12-11 19:55:00
3:15 PM,66.2,55.4,68,29.95,10.0,SW,3.5,-,N/A,,Mostly Cloudy,230,2012-12-11 20:15:00
3:35 PM,66.2,55.4,68,29.96,10.0,Calm,Calm,-,N/A,,Overcast,0,2012-12-11 20:35:00
3:55 PM,66.2,55.4,68,29.96,10.0,WSW,3.5,-,N/A,,Overcast,250,2012-12-11 20:55:00
4:15 PM,64.4,55.4,73,29.97,10.0,Calm,Calm,-,N/A,,Overcast,0,2012-12-11 21:15:00
4:35 PM,64.4,55.4,73,29.97,10.0,Calm,Calm,-,N/A,,Mostly Cloudy,0,2012-12-11 21:35:00
4:55 PM,62.6,57.2,82,29.98,10.0,Calm,Calm,-,N/A,,Scattered Clouds,0,2012-12-11 21:55:00
5:15 PM,62.6,57.2,82,29.99,10.0,Calm,Calm,-,N/A,,Mostly Cloudy,0,2012-12-11 22:15:00
5:35 PM,62.6,57.2,82,30.01,10.0,Calm,Calm,-,N/A,,Overcast,0,2012-12-11 22:35:00
5:55 PM,62.6,57.2,82,30.02,5.0,South,4.6,-,0.01,,Overcast,170,2012-12-11 22:55:00
6:15 PM,62.6,59.0,88,30.03,7.0,South,3.5,-,0.03,,Overcast,180,2012-12-11 23:15:00
6:35 PM,60.8,59.0,94,30.04,7.0,SSE,4.6,-,0.09,,Overcast,150,2012-12-11 23:35:00
6:55 PM,60.8,57.2,88,30.02,6.0,Calm,Calm,-,0.13,,Overcast,0,2012-12-11 23:55:00
7:15 PM,60.8,59.0,94,30.04,5.0,Calm,Calm,-,0.02,,Overcast,0,2012-12-12 00:15:00
7:35 PM,60.8,59.0,94,30.04,6.0,Calm,Calm,-,0.03,,Overcast,0,2012-12-12 00:35:00
7:55 PM,60.8,59.0,94,30.04,5.0,Calm,Calm,-,0.04,,Overcast,0,2012-12-12 00:55:00
8:15 PM,60.8,59.0,94,30.05,7.0,Calm,Calm,-,N/A,,Scattered Clouds,0,2012-12-12 01:15:00
8:35 PM,60.8,59.0,94,30.04,5.0,East,3.5,-,N/A,,Mostly Cloudy,90,2012-12-12 01:35:00
8:55 PM,57.2,55.4,94,30.06,8.0,NNE,15.0,-,N/A,,Overcast,30,2012-12-12 01:55:00
9:15 PM,55.4,53.6,94,30.07,8.0,NNE,11.5,-,N/A,,Overcast,20,2012-12-12 02:15:00
9:35 PM,53.6,51.8,94,30.07,9.0,NNE,10.4,-,N/A,,Overcast,20,2012-12-12 02:35:00
9:55 PM,53.6,50.0,88,30.08,10.0,North,11.5,16.1,N/A,,Overcast,10,2012-12-12 02:55:00
10:15 PM,51.8,50.0,94,30.10,10.0,North,11.5,-,N/A,,Overcast,10,2012-12-12 03:15:00
10:35 PM,51.8,50.0,94,30.10,9.0,NNE,9.2,-,N/A,,Overcast,20,2012-12-12 03:35:00
10:55 PM,51.8,48.2,88,30.11,10.0,NE,12.7,-,N/A,,Overcast,40,2012-12-12 03:55:00
11:15 PM,51.8,48.2,88,30.12,10.0,NE,11.5,-,N/A,,Overcast,40,2012-12-12 04:15:00
11:35 PM,51.8,48.2,88,30.12,6.0,NE,10.4,-,N/A,,Overcast,40,2012-12-12 04:35:00
11:55 PM,51.8,48.2,88,30.11,4.0,NE,9.2,-,N/A,,Overcast,40,2012-12-12 04:55:00